Map

Track Data

SID SEASON NUMBER BASIN SUBBASIN NAME ISO_TIME NATURE LAT LON WMO_WIND WMO_PRES WMO_AGENCY TRACK_TYPE DIST2LAND LANDFALL IFLAG USA_AGENCY USA_ATCF_ID USA_LAT USA_LON USA_RECORD USA_STATUS USA_WIND USA_PRES USA_SSHS USA_R34_NE USA_R34_SE USA_R34_SW USA_R34_NW USA_R50_NE USA_R50_SE USA_R50_SW USA_R50_NW USA_R64_NE USA_R64_SE USA_R64_SW USA_R64_NW USA_POCI USA_ROCI USA_RMW USA_EYE TOKYO_LAT TOKYO_LON TOKYO_GRADE TOKYO_WIND TOKYO_PRES TOKYO_R50_DIR TOKYO_R50_LONG TOKYO_R50_SHORT TOKYO_R30_DIR TOKYO_R30_LONG TOKYO_R30_SHORT TOKYO_LAND CMA_LAT CMA_LON CMA_CAT CMA_WIND CMA_PRES HKO_LAT HKO_LON HKO_CAT HKO_WIND HKO_PRES NEWDELHI_LAT NEWDELHI_LON NEWDELHI_GRADE NEWDELHI_WIND NEWDELHI_PRES NEWDELHI_CI NEWDELHI_DP NEWDELHI_POCI REUNION_LAT REUNION_LON REUNION_TYPE REUNION_WIND REUNION_PRES REUNION_TNUM REUNION_CI REUNION_RMW REUNION_R34_NE REUNION_R34_SE REUNION_R34_SW REUNION_R34_NW REUNION_R50_NE REUNION_R50_SE REUNION_R50_SW REUNION_R50_NW REUNION_R64_NE REUNION_R64_SE REUNION_R64_SW REUNION_R64_NW BOM_LAT BOM_LON BOM_TYPE BOM_WIND BOM_PRES BOM_TNUM BOM_CI BOM_RMW BOM_R34_NE BOM_R34_SE BOM_R34_SW BOM_R34_NW BOM_R50_NE BOM_R50_SE BOM_R50_SW BOM_R50_NW BOM_R64_NE BOM_R64_SE BOM_R64_SW BOM_R64_NW BOM_ROCI BOM_POCI BOM_EYE BOM_POS_METHOD BOM_PRES_METHOD NADI_LAT NADI_LON NADI_CAT NADI_WIND NADI_PRES WELLINGTON_LAT WELLINGTON_LON WELLINGTON_WIND WELLINGTON_PRES DS824_LAT DS824_LON DS824_STAGE DS824_WIND DS824_PRES TD9636_LAT TD9636_LON TD9636_STAGE TD9636_WIND TD9636_PRES TD9635_LAT TD9635_LON TD9635_WIND TD9635_PRES TD9635_ROCI NEUMANN_LAT NEUMANN_LON NEUMANN_CLASS NEUMANN_WIND NEUMANN_PRES MLC_LAT MLC_LON MLC_CLASS MLC_WIND MLC_PRES USA_GUST BOM_GUST BOM_GUST_PER REUNION_GUST REUNION_GUST_PER USA_SEAHGT USA_SEARAD_NE USA_SEARAD_SE USA_SEARAD_SW USA_SEARAD_NW STORM_SPEED STORM_DIR
1907213N18115 1907 35 WP MM NOT_NAMED 1907-07-31 16:00:00 NR 18.3000 114.600 main 405 397 __________O___ -1 18.3000 114.600 7 5 354
1907213N18115 1907 35 WP MM NOT_NAMED 1907-07-31 18:00:00 NR 18.4624 114.598 main 397 391 __________P___ -1 18.4624 114.598 7 5 0
1907213N18115 1907 35 WP MM NOT_NAMED 1907-07-31 21:00:00 NR 18.7075 114.595 main 391 364 __________P___ -1 18.7075 114.595 7 5 0
1907213N18115 1907 35 WP MM NOT_NAMED 1907-08-01 00:00:00 NR 18.9568 114.595 main 364 344 __________P___ -1 18.9568 114.595 7 5 0
1907213N18115 1907 35 WP MM NOT_NAMED 1907-08-01 03:00:00 NR 19.2128 114.598 main 344 335 __________P___ -1 19.2128 114.598 7 5 0
1907213N18115 1907 35 WP MM NOT_NAMED 1907-08-01 04:00:00 NR 19.3000 114.600 main 335 314 __________O___ -1 19.3000 114.600 7 5 4
1907213N18115 1907 35 WP MM NOT_NAMED 1907-08-01 06:00:00 NR 19.4776 114.605 main 314 281 __________P___ -1 19.4776 114.605 7 5 3
1907213N18115 1907 35 WP MM NOT_NAMED 1907-08-01 09:00:00 NR 19.7504 114.613 main 281 259 __________P___ -1 19.7504 114.613 7 6 0
1907213N18115 1907 35 WP MM NOT_NAMED 1907-08-01 12:00:00 NR 20.0279 114.616 main 259 225 __________P___ -1 20.0279 114.616 7 6 0
1907213N18115 1907 35 WP MM NOT_NAMED 1907-08-01 15:00:00 NR 20.3071 114.607 main 225 214 __________P___ -1 20.3071 114.607 7 6 0
1907213N18115 1907 35 WP MM NOT_NAMED 1907-08-01 16:00:00 NR 20.4000 114.600 main 214 192 __________O___ -1 20.4000 114.600 7 5 0
1907213N18115 1907 35 WP MM NOT_NAMED 1907-08-01 18:00:00 NR 20.5649 114.601 main 192 170 __________P___ -1 20.5649 114.601 7 5 0
1907213N18115 1907 35 WP MM NOT_NAMED 1907-08-01 21:00:00 NR 20.8118 114.591 main 170 135 __________P___ -1 20.8118 114.591 7 5 354
1907213N18115 1907 35 WP MM NOT_NAMED 1907-08-02 00:00:00 NR 21.0777 114.547 main 135 101 __________P___ -1 21.0777 114.547 7 6 347
1907213N18115 1907 35 WP MM NOT_NAMED 1907-08-02 03:00:00 NR 21.3848 114.449 main 101 90 __________P___ -1 21.3848 114.449 7 7 342
1907213N18115 1907 35 WP MM NOT_NAMED 1907-08-02 04:00:00 NR 21.5000 114.400 main 90 55 __________O___ -1 21.5000 114.400 7 8 342
1907213N18115 1907 35 WP MM NOT_NAMED 1907-08-02 06:00:00 NR 21.7752 114.310 main 55 15 __________P___ -1 21.7752 114.310 7 9 340
1907213N18115 1907 35 WP MM NOT_NAMED 1907-08-02 09:00:00 NR 22.2325 114.119 main 22 0 __________P___ -1 22.2325 114.119 7 10 335
1907213N18115 1907 35 WP MM NOT_NAMED 1907-08-02 12:00:00 NR 22.7078 113.841 main 10 0 __________P___ -1 22.7078 113.841 7 11 327
1907213N18115 1907 35 WP MM NOT_NAMED 1907-08-02 15:00:00 NR 23.1609 113.456 main 0 0 __________P___ -1 23.1609 113.456 7 12 320
1907213N18115 1907 35 WP MM NOT_NAMED 1907-08-02 16:00:00 NR 23.3000 113.300 main 0 0 __________O___ -1 23.3000 113.300 7 12 310
1907213N18115 1907 35 WP MM NOT_NAMED 1907-08-02 18:00:00 NR 23.5542 112.944 main 0 0 __________P___ -1 23.5542 112.944 7 13 303
1907213N18115 1907 35 WP MM NOT_NAMED 1907-08-02 21:00:00 NR 23.8833 112.318 main 0 0 __________P___ -1 23.8833 112.318 7 14 297
1907213N18115 1907 35 WP MM NOT_NAMED 1907-08-03 00:00:00 NR 24.1654 111.611 main 0 0 __________P___ -1 24.1654 111.611 7 14 292
1907213N18115 1907 35 WP MM NOT_NAMED 1907-08-03 03:00:00 NR 24.4188 110.856 main 0 0 __________P___ -1 24.4188 110.856 7 15 290
1907213N18115 1907 35 WP MM NOT_NAMED 1907-08-03 04:00:00 NR 24.5000 110.600 main 0 __________O___ -1 24.5000 110.600 7 15 289

Digital Typhoon Data and Search

About IBTrACS Database

This database is a web-friendly format of International Best Track Archive for Climate Stewardship (IBTrACS), a global best track data archive curated by NOAA dating back to 1842.

Updated: 2021-12-03